Latest Weather Observations for Fawkner Beacon

IDV60801

Issued at 10:12 pm EST Thursday 22 August 2019 (issued every 10 minutes, with the page automatically refreshed every 10 minutes)

About weather observations | Map of weather stations | Latest weather observations for VIC | Other Formats
Station Details ID: 086376 Name: FAWKNER BEACON Lat: -37.95 Lon: 144.93 Height: 17.0 m
Data from the previous 72 hours. | See also: Recent months at Fawkner Beacon
Date/Time
EST
Temp
°C
App
Temp
°C
Dew
Point
°C
Rel
Hum
%
Delta-T
°C
Wind Press
QNH
hPa
Press
MSL
hPa
Rain since
9am
mm
Dir  Spd
km/h
Gust
km/h
Spd
kts
Gust
kts
22/10:00pm - - - - - WSW 13 17 7 9 - - -
22/09:30pm - - - - - S 13 17 7 9 - - -
22/09:00pm - - - - - SSW 13 17 7 9 - - -
22/08:30pm - - - - - S 19 22 10 12 - - -
22/08:00pm - - - - - S 17 22 9 12 - - -
22/07:30pm - - - - - S 19 24 10 13 - - -
22/07:00pm - - - - - S 22 28 12 15 - - -
22/06:30pm - - - - - S 26 30 14 16 - - -
22/06:00pm - - - - - S 26 30 14 16 - - -
22/05:30pm - - - - - S 24 28 13 15 - - -
22/05:00pm - - - - - S 24 28 13 15 - - -
22/04:30pm - - - - - S 24 30 13 16 - - -
22/04:00pm - - - - - S 28 33 15 18 - - -
22/03:30pm - - - - - S 28 33 15 18 - - -
22/03:00pm - - - - - SSW 28 32 15 17 - - -
22/02:30pm - - - - - SSW 24 32 13 17 - - -
22/02:00pm - - - - - S 28 32 15 17 - - -
22/01:30pm - - - - - S 35 44 19 24 - - -
22/01:19pm - - - - - S 28 50 15 27 - - -
22/01:00pm - - - - - S 26 32 14 17 - - -
22/12:30pm - - - - - S 35 43 19 23 - - -
22/12:00pm - - - - - S 35 43 19 23 - - -
22/11:30am - - - - - SSW 39 44 21 24 - - -
22/11:00am - - - - - S 35 43 19 23 - - -
22/10:30am - - - - - SSW 39 48 21 26 - - -
22/10:00am - - - - - SSW 39 46 21 25 - - -
22/09:30am - - - - - SSW 35 43 19 23 - - -
22/09:00am - - - - - SSW 30 41 16 22 - - -
22/08:30am - - - - - SW 39 46 21 25 - - -
22/08:00am - - - - - SSW 39 48 21 26 - - -
22/07:30am - - - - - SSW 46 59 25 32 - - -
22/07:00am - - - - - SSW 39 46 21 25 - - -
22/06:30am - - - - - SW 32 41 17 22 - - -
22/06:00am - - - - - SW 43 50 23 27 - - -
22/05:30am - - - - - SW 35 43 19 23 - - -
22/05:00am - - - - - SW 41 52 22 28 - - -
22/04:43am - - - - - WSW 26 57 14 31 - - -
22/04:30am - - - - - WSW 22 28 12 15 - - -
22/04:00am - - - - - WSW 28 32 15 17 - - -
22/03:30am - - - - - SW 24 33 13 18 - - -
22/03:00am - - - - - SW 19 24 10 13 - - -
22/02:30am - - - - - SW 22 26 12 14 - - -
22/02:00am - - - - - SW 35 43 19 23 - - -
22/01:30am - - - - - SW 35 43 19 23 - - -
22/01:28am - - - - - SW 35 43 19 23 - - -
22/01:00am - - - - - WSW 41 52 22 28 - - -
22/12:30am - - - - - WSW 46 61 25 33 - - -
22/12:12am - - - - - WSW 48 69 26 37 - - -
22/12:00am - - - - - WSW 48 59 26 32 - - -
 
Date/Time
EST
Temp
°C
App
Temp
°C
Dew
Point
°C
Rel
Hum
%
Delta-T
°C
Wind Press
QNH
hPa
Press
MSL
hPa
Rain since
9am
mm
Dir  Spd
km/h
Gust
km/h
Spd
kts
Gust
kts
21/11:30pm - - - - - W 50 59 27 32 - - -
21/11:00pm - - - - - W 50 63 27 34 - - -
21/10:35pm - - - - - W 48 67 26 36 - - -
21/10:30pm - - - - - W 48 63 26 34 - - -
21/10:03pm - - - - - W 48 67 26 36 - - -
21/10:00pm - - - - - W 46 61 25 33 - - -
21/09:30pm - - - - - W 44 59 24 32 - - -
21/09:08pm - - - - - W 44 65 24 35 - - -
21/09:00pm - - - - - W 41 50 22 27 - - -
21/08:30pm - - - - - W 39 50 21 27 - - -
21/08:00pm - - - - - W 43 54 23 29 - - -
21/07:30pm - - - - - W 46 57 25 31 - - -
21/07:14pm - - - - - WNW 39 57 21 31 - - -
21/07:00pm - - - - - W 32 41 17 22 - - -
21/06:30pm - - - - - W 41 50 22 27 - - -
21/06:00pm - - - - - W 39 46 21 25 - - -
21/05:30pm - - - - - W 43 57 23 31 - - -
21/05:00pm - - - - - WSW 43 52 23 28 - - -
21/04:30pm - - - - - WSW 39 46 21 25 - - -
21/04:00pm - - - - - WSW 39 48 21 26 - - -
21/03:30pm - - - - - WSW 33 41 18 22 - - -
21/03:00pm - - - - - WSW 35 43 19 23 - - -
21/02:30pm - - - - - WSW 32 39 17 21 - - -
21/02:00pm - - - - - WSW 37 44 20 24 - - -
21/01:30pm - - - - - WSW 37 48 20 26 - - -
21/01:00pm - - - - - WSW 33 39 18 21 - - -
21/12:30pm - - - - - WSW 35 43 19 23 - - -
21/12:00pm - - - - - WSW 32 39 17 21 - - -
21/11:30am - - - - - WSW 39 44 21 24 - - -
21/11:00am - - - - - WSW 35 41 19 22 - - -
21/10:30am - - - - - WSW 32 35 17 19 - - -
21/10:00am - - - - - W 30 35 16 19 - - -
21/09:30am - - - - - W 35 43 19 23 - - -
21/09:00am - - - - - W 32 41 17 22 - - -
21/08:30am - - - - - W 32 39 17 21 - - -
21/08:00am - - - - - W 33 46 18 25 - - -
21/07:30am - - - - - W 43 50 23 27 - - -
21/07:00am - - - - - W 41 52 22 28 - - -
21/06:30am - - - - - WSW 41 52 22 28 - - -
21/06:00am - - - - - WSW 43 50 23 27 - - -
21/05:30am - - - - - W 44 57 24 31 - - -
21/05:00am - - - - - W 41 48 22 26 - - -
21/04:30am - - - - - W 50 65 27 35 - - -
21/04:00am - - - - - W 46 61 25 33 - - -
21/03:30am - - - - - W 46 57 25 31 - - -
21/03:00am - - - - - W 43 52 23 28 - - -
21/02:30am - - - - - WNW 32 43 17 23 - - -
21/02:00am - - - - - WNW 33 43 18 23 - - -
21/01:30am - - - - - WNW 37 48 20 26 - - -
21/01:00am - - - - - WNW 41 52 22 28 - - -
21/12:30am - - - - - WNW 48 61 26 33 - - -
21/12:00am - - - - - WNW 48 59 26 32 - - -
 
Date/Time
EST
Temp
°C
App
Temp
°C
Dew
Point
°C
Rel
Hum
%
Delta-T
°C
Wind Press
QNH
hPa
Press
MSL
hPa
Rain since
9am
mm
Dir  Spd
km/h
Gust
km/h
Spd
kts
Gust
kts
20/11:30pm - - - - - WNW 41 52 22 28 - - -
20/11:00pm - - - - - WNW 41 48 22 26 - - -
20/10:30pm - - - - - WNW 43 50 23 27 - - -
20/10:00pm - - - - - WNW 46 65 25 35 - - -
20/09:52pm - - - - - WNW 44 65 24 35 - - -
20/09:30pm - - - - - WNW 35 41 19 22 - - -
20/09:00pm - - - - - WNW 35 44 19 24 - - -
20/08:30pm - - - - - WNW 30 41 16 22 - - -
20/08:00pm - - - - - WNW 39 48 21 26 - - -
20/07:30pm - - - - - W 48 67 26 36 - - -
20/07:27pm - - - - - W 43 67 23 36 - - -
20/07:00pm - - - - - W 44 59 24 32 - - -
20/06:56pm - - - - - W 41 59 22 32 - - -
20/06:30pm - - - - - WNW 32 41 17 22 - - -
20/06:00pm - - - - - W 30 35 16 19 - - -
20/05:30pm - - - - - W 37 48 20 26 - - -
20/05:00pm - - - - - W 39 46 21 25 - - -
20/04:49pm - - - - - W 44 63 24 34 - - -
20/04:30pm - - - - - WNW 46 61 25 33 - - -
20/04:02pm - - - - - WNW 46 65 25 35 - - -
20/04:00pm - - - - - WNW 44 59 24 32 - - -
20/03:30pm - - - - - WNW 43 57 23 31 - - -
20/03:00pm - - - - - W 39 52 21 28 - - -
20/02:30pm - - - - - W 35 44 19 24 - - -
20/02:00pm - - - - - WNW 39 57 21 31 - - -
20/01:59pm - - - - - WNW 37 57 20 31 - - -
20/01:30pm - - - - - WNW 33 43 18 23 - - -
20/01:00pm - - - - - WNW 35 41 19 22 - - -
20/12:30pm - - - - - WNW 33 44 18 24 - - -
20/12:00pm - - - - - WNW 43 52 23 28 - - -
20/11:30am - - - - - WNW 39 57 21 31 - - -
20/11:29am - - - - - WNW 39 57 21 31 - - -
20/11:00am - - - - - WNW 41 48 22 26 - - -
20/10:30am - - - - - WNW 43 54 23 29 - - -
20/10:00am - - - - - NW 39 50 21 27 - - -
20/09:30am - - - - - WNW 41 50 22 27 - - -
20/09:00am - - - - - WNW 41 46 22 25 - - -
20/08:30am - - - - - NW 33 41 18 22 - - -
20/08:00am - - - - - WNW 30 43 16 23 - - -
20/07:30am - - - - - WNW 32 41 17 22 - - -
20/07:00am - - - - - WNW 30 41 16 22 - - -
20/06:30am - - - - - WNW 32 39 17 21 - - -
20/06:00am - - - - - WNW 28 33 15 18 - - -
20/05:30am - - - - - NW 26 32 14 17 - - -
20/05:00am - - - - - NW 26 30 14 16 - - -
20/04:30am - - - - - NW 30 33 16 18 - - -
20/04:00am - - - - - NW 24 30 13 16 - - -
20/03:30am - - - - - NW 28 33 15 18 - - -
20/03:00am - - - - - NW 26 30 14 16 - - -
20/02:30am - - - - - WNW 32 35 17 19 - - -
20/02:00am - - - - - NW 28 32 15 17 - - -
20/01:30am - - - - - WNW 28 32 15 17 - - -
20/01:00am - - - - - WNW 30 33 16 18 - - -
20/12:30am - - - - - WNW 28 33 15 18 - - -
20/12:00am - - - - - NW 28 35 15 19 - - -
 
Date/Time
EST
Temp
°C
App
Temp
°C
Dew
Point
°C
Rel
Hum
%
Delta-T
°C
Wind Press
QNH
hPa
Press
MSL
hPa
Rain since
9am
mm
Dir  Spd
km/h
Gust
km/h
Spd
kts
Gust
kts
19/11:30pm - - - - - WNW 26 32 14 17 - - -
19/11:00pm - - - - - WNW 26 33 14 18 - - -
19/10:30pm - - - - - WNW 28 33 15 18 - - -

Other formats

Comma delimited format used in spreadsheet applications
http://www.bom.gov.au/fwo/IDV60801/IDV60801.95872.axf

JavaScript Object Notation format (JSON) in row-major order
http://www.bom.gov.au/fwo/IDV60801/IDV60801.95872.json

Data quality

Most of these data are generated automatically and are frequently updated. Quality checks on data are not normally performed. It is possible for incorrect values to appear. Refer to information at About Latest Weather Observations and please check the disclaimer before using these data.